Terminal Aerodrome Forecast
Issued by NWS

Home | Current Version | Previous Version | Text Only | Print | Product List | Glossary On
Versions: 1 2 3 4 5 6 7 8 9 10 11 12 13 14 15 16 17 18 19 20 21 22 23 24
000
FTAK31 PAJN 311739
TAFASI
TAF
PASI 311739Z 3118/0118 34004KT P6SM SCT015 BKN025 OVC070
      TEMPO 3118/3120 6SM -SHRA FEW004 BKN010 OVC030
     FM312000 33007KT P6SM VCSH SCT010 SCT025 OVC040
      TEMPO 3120/3124 6SM -SHRA SCT010 OVC025
     FM010600 34005KT P6SM VCSH BKN020 BKN040
     FM011700 27008KT P6SM VCSH SCT025 BKN050 BKN070=

USA.gov is the U.S. government's official web portal to all federal, state and local government web resources and services.